.
WxDataArchive / Data Records for 2010-01-18
2010-01-17 January 2010 2010-01-19

Data Records for Monday, 18 January 2010

Time	Temp	Chill	HIndex	Humid	Dewpt	 Wind 	HiWind	WindDir	Rain 	Barom 
-----	----	-----	------	-----	-----	------	------	-------	-----	----- 
00:00	25.8	25.8	25.8	93	24.1	1	3	270	0.00	29.891 
00:05	25.8	25.8	25.8	93	24.1	0	1	248	0.00	29.891 
00:10	25.7	25.7	25.7	93	24.0	0	3	248	0.00	29.891 
00:15	25.7	25.7	25.7	93	24.0	1	4	248	0.00	29.892 
00:20	25.7	25.7	25.7	93	24.0	1	3	248	0.00	29.892 
00:25	25.7	25.7	25.7	93	24.0	1	4	248	0.00	29.892 
00:30	25.6	25.6	25.6	93	23.9	1	3	248	0.00	29.893 
00:35	25.6	25.6	25.6	93	23.9	1	2	292	0.00	29.893 
00:40	25.7	25.7	25.7	93	24.0	1	3	292	0.00	29.893 
00:45	25.7	25.7	25.7	93	24.0	0	2	248	0.00	29.887 
00:50	25.6	25.6	25.6	93	23.9	1	3	248	0.00	29.887 
00:55	25.6	25.6	25.6	93	23.9	1	5	248	0.00	29.887 
01:00	25.6	25.6	25.6	93	23.9	1	2	248	0.00	29.894 
01:05	25.6	25.6	25.6	93	23.9	1	4	248	0.00	29.894 
01:10	25.7	25.7	25.7	93	24.0	2	3	248	0.00	29.894 
01:15	25.6	25.6	25.6	93	23.9	2	4	270	0.00	29.902 
01:20	25.4	25.4	25.4	93	23.7	2	4	248	0.00	29.902 
01:25	25.3	25.3	25.3	93	23.6	2	5	270	0.00	29.902 
01:30	25.3	25.3	25.3	93	23.6	1	3	292	0.00	29.902 
01:35	25.4	25.4	25.4	93	23.7	2	6	270	0.00	29.902 
01:40	25.4	25.4	25.4	93	23.7	2	5	248	0.00	29.902 
01:45	25.4	25.4	25.4	94	23.9	1	5	248	0.00	29.903 
01:50	25.4	25.4	25.4	94	23.9	1	4	248	0.00	29.903 
01:55	25.4	25.4	25.4	94	23.9	1	3	248	0.00	29.903 
02:00	25.4	25.4	25.4	94	23.9	1	3	248	0.00	29.906 
02:05	25.4	25.4	25.4	94	23.9	1	2	248	0.00	29.906 
02:10	25.4	25.4	25.4	94	23.9	1	3	248	0.00	29.906 
02:15	25.4	25.4	25.4	94	23.9	1	5	248	0.00	29.920 
02:20	25.4	25.4	25.4	94	23.9	1	4	248	0.00	29.920 
02:25	25.6	25.6	25.6	94	24.1	2	5	292	0.00	29.920 
02:30	25.6	25.6	25.6	94	24.1	2	4	248	0.00	29.919 
02:35	25.7	25.7	25.7	94	24.2	1	3	270	0.00	29.919 
02:40	25.7	25.7	25.7	94	24.2	1	2	315	0.00	29.919 
02:45	25.7	25.7	25.7	94	24.2	1	2	315	0.00	29.923 
02:50	25.7	25.7	25.7	94	24.2	2	3	270	0.00	29.923 
02:55	25.6	25.6	25.6	94	24.1	2	4	270	0.00	29.923 
03:00	25.6	25.6	25.6	94	24.1	2	4	270	0.00	29.932 
03:05	25.4	25.4	25.4	94	23.9	2	4	270	0.00	29.932 
03:10	25.4	25.4	25.4	94	23.9	1	4	270	0.00	29.932 
03:15	25.4	25.4	25.4	94	23.9	1	2	248	0.00	29.933 
03:20	25.3	25.3	25.3	94	23.8	2	4	248	0.00	29.933 
03:25	25.3	25.3	25.3	94	23.8	1	3	270	0.00	29.933 
03:30	25.3	25.3	25.3	94	23.8	1	2	270	0.00	29.936 
03:35	25.1	25.1	25.1	94	23.6	2	4	292	0.00	29.936 
03:40	25.0	25.0	25.0	94	23.5	2	6	270	0.00	29.936 
03:45	25.0	25.0	25.0	94	23.5	2	6	270	0.00	29.943 
03:50	24.8	24.8	24.8	94	23.3	2	5	292	0.00	29.943 
03:55	24.8	24.8	24.8	94	23.3	2	3	270	0.00	29.943 
04:00	24.8	24.8	24.8	94	23.3	1	4	248	0.00	29.944 
04:05	24.8	24.8	24.8	94	23.3	1	3	248	0.00	29.944 
04:10	24.8	24.8	24.8	94	23.3	1	2	248	0.00	29.944 
04:15	24.7	24.7	24.7	94	23.2	1	2	248	0.00	29.941 
04:20	24.7	24.7	24.7	94	23.2	0	2	248	0.00	29.941 
04:25	24.5	24.5	24.5	94	23.0	1	3	248	0.00	29.941 
04:30	24.4	24.4	24.4	94	22.9	1	3	248	0.00	29.947 
04:35	24.4	24.4	24.4	94	22.9	1	4	338	0.00	29.947 
04:40	24.2	24.2	24.2	94	22.7	1	3	248	0.00	29.947 
04:45	24.2	24.2	24.2	94	22.7	1	3	315	0.00	29.945 
04:50	24.2	24.2	24.2	94	22.7	0	2	315	0.00	29.945 
04:55	24.2	24.2	24.2	94	22.7	1	4	248	0.00	29.945 
05:00	24.1	24.1	24.1	94	22.6	1	5	248	0.00	29.950 
05:05	24.1	24.1	24.1	94	22.6	1	4	248	0.00	29.950 
05:10	23.9	23.9	23.9	94	22.4	2	4	270	0.00	29.950 
05:15	23.9	23.9	23.9	94	22.4	1	3	270	0.00	29.954 
05:20	23.9	23.9	23.9	94	22.4	1	2	270	0.00	29.954 
05:25	23.9	23.9	23.9	94	22.4	0	2	270	0.00	29.954 
05:30	23.9	23.9	23.9	94	22.4	1	3	270	0.00	29.960 
05:35	24.1	24.1	24.1	94	22.6	1	3	270	0.00	29.960 
05:40	24.1	24.1	24.1	94	22.6	0	2	270	0.00	29.960 
05:45	24.2	24.2	24.2	94	22.7	0	1	270	0.00	29.967 
05:50	24.2	24.2	24.2	94	22.7	0	2	270	0.00	29.967 
05:55	24.2	24.2	24.2	94	22.7	0	1	270	0.00	29.967 
06:00	24.4	24.4	24.4	94	22.9	0	0	---	0.00	29.956 
06:05	24.4	24.4	24.4	94	22.9	0	0	---	0.00	29.956 
06:10	24.5	24.5	24.5	94	23.0	0	1	270	0.00	29.956 
06:15	24.5	24.5	24.5	94	23.0	0	0	---	0.00	29.969 
06:20	24.7	24.7	24.7	94	23.2	0	2	270	0.00	29.969 
06:25	24.8	24.8	24.8	94	23.3	0	1	270	0.00	29.969 
06:30	24.8	24.8	24.8	94	23.3	0	1	270	0.00	29.971 
06:35	25.0	25.0	25.0	94	23.5	0	0	---	0.00	29.971 
06:40	25.1	25.1	25.1	94	23.6	0	0	---	0.00	29.971 
06:45	25.3	25.3	25.3	94	23.8	0	2	270	0.00	29.981 
06:50	25.4	25.4	25.4	94	23.9	0	1	270	0.00	29.981 
06:55	25.6	25.6	25.6	94	24.1	0	1	270	0.00	29.981 
07:00	26.0	26.0	26.0	95	24.8	0	2	270	0.00	29.980 
07:05	26.3	26.3	26.3	95	25.1	1	3	270	0.00	29.980 
07:10	26.4	26.4	26.4	95	25.2	0	2	248	0.00	29.980 
07:15	26.6	26.6	26.6	95	25.4	0	1	248	0.00	29.979 
07:20	26.7	26.7	26.7	95	25.5	1	3	248	0.00	29.979 
07:25	26.9	26.9	26.9	95	25.7	1	4	248	0.00	29.979 
07:30	27.0	27.0	27.0	95	25.8	0	2	248	0.00	29.982 
07:35	27.0	27.0	27.0	95	25.8	0	2	248	0.00	29.982 
07:40	27.2	27.2	27.2	95	26.0	0	2	248	0.00	29.982 
07:45	27.3	27.3	27.3	95	26.1	0	2	248	0.00	29.988 
07:50	27.3	27.3	27.3	95	26.1	0	2	248	0.00	29.988 
07:55	27.5	27.5	27.5	95	26.3	0	1	248	0.00	29.988 
08:00	27.5	27.5	27.5	95	26.3	0	1	248	0.00	29.997 
08:05	27.6	27.6	27.6	95	26.4	0	1	248	0.00	29.997 
08:10	27.6	27.6	27.6	95	26.4	0	2	248	0.00	29.997 
08:15	27.8	27.8	27.8	95	26.6	0	1	248	0.00	30.000 
08:20	27.8	27.8	27.8	95	26.6	0	2	248	0.00	30.000 
08:25	27.9	27.9	27.9	95	26.7	0	1	248	0.00	30.000 
08:30	27.9	27.9	27.9	95	26.7	0	2	248	0.00	30.002 
08:35	28.1	28.1	28.1	95	26.9	0	4	248	0.00	30.002 
08:40	28.2	28.2	28.2	95	27.0	0	3	248	0.00	30.002 
08:45	28.4	28.4	28.4	95	27.2	0	3	248	0.00	30.010 
08:50	28.5	28.5	28.5	95	27.3	1	3	248	0.00	30.010 
08:55	28.7	28.7	28.7	95	27.5	1	2	248	0.00	30.010 
09:00	28.8	28.8	28.8	95	27.6	0	2	248	0.00	30.013 
09:05	28.8	28.8	28.8	95	27.6	1	4	248	0.00	30.013 
09:10	29.0	29.0	29.0	95	27.8	1	4	248	0.00	30.013 
09:15	29.1	29.1	29.1	95	27.9	1	3	248	0.00	30.019 
09:20	29.1	29.1	29.1	95	27.9	1	3	248	0.00	30.019 
09:25	29.1	29.1	29.1	95	27.9	1	3	248	0.00	30.019 
09:30	29.3	29.3	29.3	95	28.0	1	3	248	0.00	30.019 
09:35	29.3	29.3	29.3	95	28.0	1	2	248	0.00	30.019 
09:40	29.4	29.4	29.4	95	28.1	1	2	248	0.00	30.019 
09:45	29.4	29.4	29.4	96	28.4	1	5	248	0.00	30.026 
09:50	29.5	29.5	29.5	96	28.5	1	4	270	0.00	30.026 
09:55	29.5	29.5	29.5	96	28.5	1	3	270	0.00	30.026 
10:00	29.7	29.7	29.7	95	28.4	1	4	270	0.00	30.021 
10:05	29.7	29.7	29.7	96	28.7	1	3	270	0.00	30.021 
10:10	29.8	29.8	29.8	95	28.5	1	4	270	0.00	30.021 
10:15	29.8	29.8	29.8	96	28.8	2	5	248	0.00	30.022 
10:20	29.8	29.8	29.8	96	28.8	1	3	248	0.00	30.022 
10:25	30.0	30.0	30.0	95	28.7	3	7	248	0.00	30.022 
10:30	30.0	30.0	30.0	96	29.0	2	4	292	0.00	30.027 
10:35	30.1	30.1	30.1	96	29.1	2	5	248	0.00	30.027 
10:40	30.1	30.1	30.1	96	29.1	1	4	270	0.00	30.027 
10:45	30.3	30.3	30.3	96	29.3	1	5	270	0.00	30.028 
10:50	30.3	30.3	30.3	95	29.0	2	5	248	0.00	30.028 
10:55	30.3	30.3	30.3	96	29.3	1	3	248	0.00	30.028 
11:00	30.4	30.4	30.4	95	29.1	1	3	270	0.00	30.028 
11:05	30.4	30.4	30.4	95	29.1	1	3	248	0.00	30.028 
11:10	30.6	30.6	30.6	96	29.6	1	3	248	0.00	30.028 
11:15	30.4	30.4	30.4	95	29.1	2	4	270	0.00	30.021 
11:20	30.6	30.6	30.6	95	29.3	2	10	248	0.00	30.021 
11:25	30.6	30.6	30.6	95	29.3	1	4	248	0.00	30.021 
11:30	30.7	30.7	30.7	95	29.4	1	5	225	0.00	30.014 
11:35	30.9	30.9	30.9	95	29.6	1	4	248	0.00	30.014 
11:40	30.9	30.9	30.9	95	29.6	1	3	248	0.00	30.014 
11:45	30.9	30.9	30.9	95	29.6	1	6	248	0.00	30.009 
11:50	31.0	31.0	31.0	95	29.7	1	2	270	0.00	30.009 
11:55	31.0	31.0	31.0	95	29.7	1	4	248	0.00	30.009 
12:00	31.2	31.2	31.2	95	29.9	2	5	248	0.00	29.999 
12:05	31.2	31.2	31.2	95	29.9	1	3	248	0.00	29.999 
12:10	31.2	31.2	31.2	95	29.9	2	4	248	0.00	29.999 
12:15	31.2	31.2	31.2	95	29.9	2	4	248	0.00	29.998 
12:20	31.3	31.3	31.3	95	30.0	2	5	248	0.00	29.998 
12:25	31.3	31.3	31.3	95	30.0	1	4	248	0.00	29.998 
12:30	31.5	31.5	31.5	95	30.2	1	3	248	0.00	29.993 
12:35	31.5	31.5	31.5	94	30.0	1	5	248	0.00	29.993 
12:40	31.5	31.5	31.5	94	30.0	1	5	248	0.00	29.993 
12:45	31.6	31.6	31.6	94	30.1	1	5	248	0.00	29.988 
12:50	31.6	31.6	31.6	94	30.1	2	5	248	0.00	29.988 
12:55	31.6	31.6	31.6	94	30.1	1	4	292	0.00	29.988 
13:00	31.8	31.8	31.8	94	30.3	1	3	270	0.00	29.980 
13:05	31.8	31.8	31.8	94	30.3	1	6	248	0.00	29.980 
13:10	31.8	31.8	31.8	94	30.3	1	2	248	0.00	29.980 
13:15	31.9	31.9	31.9	94	30.4	1	3	248	0.00	29.979 
13:20	31.9	31.9	31.9	93	30.1	2	5	248	0.00	29.979 
13:25	31.8	31.8	31.8	93	30.0	1	4	248	0.00	29.979 
13:30	31.8	31.8	31.8	93	30.0	2	5	248	0.00	29.973 
13:35	31.8	31.8	31.8	93	30.0	2	5	248	0.00	29.973 
13:40	31.8	31.8	31.8	93	30.0	1	2	248	0.00	29.973 
13:45	31.8	31.8	31.8	93	30.0	1	4	248	0.00	29.970 
13:50	31.8	31.8	31.8	93	30.0	1	4	248	0.00	29.970 
13:55	31.8	31.8	31.8	93	30.0	1	4	248	0.00	29.970 
14:00	31.9	31.9	31.9	93	30.1	1	2	338	0.00	29.969 
14:05	31.9	31.9	31.9	93	30.1	1	3	225	0.00	29.969 
14:10	31.9	31.9	31.9	92	29.8	1	3	225	0.00	29.969 
14:15	31.9	31.9	31.9	92	29.8	1	3	248	0.00	29.966 
14:20	31.9	31.9	31.9	92	29.8	1	4	270	0.00	29.966 
14:25	31.9	31.9	31.9	92	29.8	1	4	248	0.00	29.966 
14:30	31.9	31.9	31.9	92	29.8	1	3	248	0.00	29.967 
14:35	32.1	32.1	32.1	92	30.0	1	2	248	0.00	29.967 
14:40	32.1	32.1	32.1	92	30.0	1	4	248	0.00	29.967 
14:45	32.1	32.1	32.1	92	30.0	2	4	270	0.00	29.970 
14:50	32.1	32.1	32.1	92	30.0	2	6	270	0.00	29.970 
14:55	31.9	31.9	31.9	92	29.8	2	6	248	0.00	29.970 
15:00	31.9	31.9	31.9	92	29.8	1	4	270	0.00	29.971 
15:05	32.1	32.1	32.1	92	30.0	1	4	248	0.00	29.971 
15:10	32.1	32.1	32.1	92	30.0	2	5	248	0.00	29.971 
15:15	32.1	32.1	32.1	92	30.0	2	9	248	0.00	29.979 
15:20	32.1	32.1	32.1	92	30.0	1	4	248	0.00	29.979 
15:25	32.1	32.1	32.1	92	30.0	1	3	248	0.00	29.979 
15:30	32.1	32.1	32.1	92	30.0	1	3	248	0.00	29.981 
15:35	32.1	32.1	32.1	92	30.0	1	3	248	0.00	29.981 
15:40	32.1	32.1	32.1	91	29.8	1	4	248	0.00	29.981 
15:45	32.1	32.1	32.1	91	29.8	1	5	248	0.00	29.974 
15:50	32.1	32.1	32.1	91	29.8	1	4	248	0.00	29.974 
15:55	32.1	32.1	32.1	91	29.8	2	6	248	0.00	29.974 
16:00	32.1	32.1	32.1	91	29.8	2	6	248	0.00	29.982 
16:05	32.1	32.1	32.1	91	29.8	2	5	248	0.00	29.982 
16:10	32.1	32.1	32.1	91	29.8	1	4	248	0.00	29.982 
16:15	31.9	31.9	31.9	91	29.6	1	4	248	0.00	29.984 
16:20	31.9	31.9	31.9	91	29.6	1	4	248	0.00	29.984 
16:25	32.1	32.1	32.1	91	29.8	2	6	248	0.00	29.984 
16:30	32.1	32.1	32.1	91	29.8	1	4	248	0.00	29.983 
16:35	31.9	31.9	31.9	91	29.6	1	4	248	0.00	29.983 
16:40	31.9	31.9	31.9	91	29.6	1	4	248	0.00	29.983 
16:45	31.9	31.9	31.9	91	29.6	2	5	248	0.00	29.985 
16:50	31.9	31.9	31.9	92	29.8	2	6	248	0.00	29.985 
16:55	31.9	31.9	31.9	91	29.6	2	6	248	0.00	29.985 
17:00	31.9	31.9	31.9	91	29.6	2	5	248	0.00	29.995 
17:05	31.9	31.9	31.9	92	29.8	2	7	248	0.00	29.995 
17:10	31.9	31.9	31.9	92	29.8	1	2	248	0.00	29.995 
17:15	31.8	31.8	31.8	92	29.7	1	3	248	0.00	29.999 
17:20	31.8	31.8	31.8	92	29.7	2	5	248	0.00	29.999 
17:25	31.8	31.8	31.8	92	29.7	1	3	225	0.00	29.999 
17:30	31.8	31.8	31.8	92	29.7	1	3	248	0.00	29.999 
17:35	31.8	31.8	31.8	92	29.7	1	4	248	0.00	29.999 
17:40	31.8	31.8	31.8	92	29.7	2	5	248	0.00	29.999 
17:45	31.8	31.8	31.8	92	29.7	1	4	248	0.00	29.998 
17:50	31.8	31.8	31.8	92	29.7	1	4	248	0.00	29.998 
17:55	31.6	31.6	31.6	92	29.5	2	5	248	0.00	29.998 
18:00	31.6	31.6	31.6	92	29.5	0	4	248	0.00	29.998 
18:05	31.6	31.6	31.6	92	29.5	1	4	248	0.00	29.998 
18:10	31.6	31.6	31.6	92	29.5	1	3	248	0.00	29.998 
18:15	31.6	31.6	31.6	92	29.5	2	5	248	0.00	29.995 
18:20	31.6	31.6	31.6	92	29.5	1	5	248	0.00	29.995 
18:25	31.5	31.5	31.5	92	29.4	1	3	248	0.00	29.995 
18:30	31.5	31.5	31.5	93	29.7	2	5	248	0.00	29.987 
18:35	31.5	31.5	31.5	93	29.7	1	5	292	0.00	29.987 
18:40	31.5	31.5	31.5	93	29.7	1	3	248	0.00	29.987 
18:45	31.5	31.5	31.5	93	29.7	1	3	270	0.00	29.991 
18:50	31.3	31.3	31.3	93	29.5	1	4	225	0.00	29.991 
18:55	31.3	31.3	31.3	93	29.5	1	6	248	0.00	29.991 
19:00	31.3	31.3	31.3	93	29.5	1	3	248	0.00	29.984 
19:05	31.3	31.3	31.3	93	29.5	1	3	248	0.00	29.984 
19:10	31.3	31.3	31.3	93	29.5	0	2	248	0.00	29.984 
19:15	31.5	31.5	31.5	93	29.7	1	4	248	0.00	29.987 
19:20	31.5	31.5	31.5	93	29.7	1	5	248	0.00	29.987 
19:25	31.5	31.5	31.5	93	29.7	0	2	248	0.00	29.987 
19:30	31.5	31.5	31.5	93	29.7	1	3	248	0.00	29.981 
19:35	31.5	31.5	31.5	93	29.7	1	5	248	0.00	29.981 
19:40	31.5	31.5	31.5	93	29.7	2	4	248	0.00	29.981 
19:45	31.5	31.5	31.5	93	29.7	1	3	248	0.00	29.995 
19:50	31.5	31.5	31.5	93	29.7	1	5	248	0.00	29.995 
19:55	31.5	31.5	31.5	93	29.7	0	3	248	0.00	29.995 
20:00	31.3	31.3	31.3	93	29.5	2	6	248	0.00	29.995 
20:05	31.3	31.3	31.3	93	29.5	2	4	248	0.00	29.995 
20:10	31.3	31.3	31.3	93	29.5	1	3	248	0.00	29.995 
20:15	31.3	31.3	31.3	94	29.8	1	4	248	0.00	29.995 
20:20	31.3	31.3	31.3	94	29.8	2	6	248	0.00	29.995 
20:25	31.3	31.3	31.3	94	29.8	2	6	248	0.00	29.995 
20:30	31.3	31.3	31.3	94	29.8	0	3	248	0.00	30.000 
20:35	31.3	31.3	31.3	94	29.8	1	3	248	0.00	30.000 
20:40	31.3	31.3	31.3	94	29.8	1	5	248	0.00	30.000 
20:45	31.3	31.3	31.3	94	29.8	0	2	270	0.00	29.997 
20:50	31.3	31.3	31.3	94	29.8	1	4	248	0.00	29.997 
20:55	31.3	31.3	31.3	94	29.8	1	4	248	0.00	29.997 
21:00	31.3	31.3	31.3	94	29.8	0	2	248	0.00	29.997 
21:05	31.5	31.5	31.5	94	30.0	1	5	248	0.00	29.997 
21:10	31.5	31.5	31.5	94	30.0	1	2	248	0.00	29.997 
21:15	31.5	31.5	31.5	94	30.0	1	3	248	0.00	29.994 
21:20	31.5	31.5	31.5	94	30.0	1	4	248	0.00	29.994 
21:25	31.5	31.5	31.5	94	30.0	1	5	248	0.00	29.994 
21:30	31.3	31.3	31.3	94	29.8	2	5	248	0.00	29.998 
21:35	31.3	31.3	31.3	94	29.8	2	5	248	0.00	29.998 
21:40	31.3	31.3	31.3	94	29.8	1	3	248	0.00	29.998 
21:45	31.5	31.5	31.5	94	30.0	1	4	248	0.00	30.004 
21:50	31.5	31.5	31.5	94	30.0	2	5	248	0.00	30.004 
21:55	31.5	31.5	31.5	94	30.0	2	5	248	0.00	30.004 
22:00	31.5	31.5	31.5	94	30.0	2	5	248	0.00	30.006 
22:05	31.5	31.5	31.5	94	30.0	1	3	248	0.00	30.006 
22:10	31.5	31.5	31.5	94	30.0	1	3	248	0.00	30.006 
22:15	31.5	31.5	31.5	94	30.0	1	3	248	0.00	30.007 
22:20	31.5	31.5	31.5	94	30.0	1	4	248	0.00	30.007 
22:25	31.5	31.5	31.5	94	30.0	0	1	248	0.00	30.007 
22:30	31.5	31.5	31.5	94	30.0	1	3	248	0.00	30.004 
22:35	31.5	31.5	31.5	94	30.0	0	2	248	0.00	30.004 
22:40	31.5	31.5	31.5	94	30.0	0	2	248	0.00	30.004 
22:45	31.5	31.5	31.5	94	30.0	0	3	338	0.00	29.999 
22:50	31.5	31.5	31.5	94	30.0	0	2	248	0.00	29.999 
22:55	31.3	31.3	31.3	94	29.8	0	2	248	0.00	29.999 
23:00	31.5	31.5	31.5	94	30.0	0	1	248	0.00	29.993 
23:05	31.3	31.3	31.3	94	29.8	0	3	248	0.00	29.993 
23:10	31.5	31.5	31.5	94	30.0	1	3	248	0.00	29.993 
23:15	31.5	31.5	31.5	93	29.7	1	5	248	0.00	29.989 
23:20	31.5	31.5	31.5	93	29.7	1	4	248	0.00	29.989 
23:25	31.5	31.5	31.5	93	29.7	1	3	248	0.00	29.989 
23:30	31.5	31.5	31.5	93	29.7	1	4	248	0.00	29.986 
23:35	31.5	31.5	31.5	93	29.7	1	3	248	0.00	29.986 
23:40	31.5	31.5	31.5	93	29.7	0	2	248	0.00	29.986 
23:45	31.5	31.5	31.5	93	29.7	0	3	248	0.00	29.993 
23:50	31.5	31.5	31.5	93	29.7	1	4	0	0.00	29.993 
23:55	31.5	31.5	31.5	93	29.7	1	2	248	0.00	29.993 

CoCoRaHS
IN-AL-39
A2 Web Hosting
Creative Commons License
GoDaddy
search engine by freefind advanced

loaded 2018-11-20 15:19:42 • last modified 2010-11-18 10:43:29
Privacy PolicyDisclaimer
• wx.awcolley.com is powered by PmWiki v.2002016 •
• all content (unless otherwise noted) © 2018 A W Colley